sensor_id;sensor_type;location;lat;lon;timestamp;temperature;humidity
32400;DHT22;45045;45.440;9.178;2022-08-19T00:00:13;27.10;86.80
32400;DHT22;45045;45.440;9.178;2022-08-19T00:02:40;27.00;87.30
32400;DHT22;45045;45.440;9.178;2022-08-19T00:05:06;27.00;87.60
32400;DHT22;45045;45.440;9.178;2022-08-19T00:07:31;27.00;87.90
32400;DHT22;45045;45.440;9.178;2022-08-19T00:09:57;27.00;87.60
32400;DHT22;45045;45.440;9.178;2022-08-19T00:12:23;27.10;87.40
32400;DHT22;45045;45.440;9.178;2022-08-19T00:14:48;27.10;87.30
32400;DHT22;45045;45.440;9.178;2022-08-19T00:17:14;27.10;87.20
32400;DHT22;45045;45.440;9.178;2022-08-19T00:19:40;27.10;87.00
32400;DHT22;45045;45.440;9.178;2022-08-19T00:22:06;27.10;86.70
32400;DHT22;45045;45.440;9.178;2022-08-19T00:24:34;27.00;87.10
32400;DHT22;45045;45.440;9.178;2022-08-19T00:27:00;27.00;87.10
32400;DHT22;45045;45.440;9.178;2022-08-19T00:29:27;27.10;87.20
32400;DHT22;45045;45.440;9.178;2022-08-19T00:31:54;27.10;87.10
32400;DHT22;45045;45.440;9.178;2022-08-19T00:34:22;27.10;86.90
32400;DHT22;45045;45.440;9.178;2022-08-19T00:36:48;27.10;86.90
32400;DHT22;45045;45.440;9.178;2022-08-19T00:39:15;27.10;86.60
32400;DHT22;45045;45.440;9.178;2022-08-19T00:41:42;27.10;86.90
32400;DHT22;45045;45.440;9.178;2022-08-19T00:44:18;27.10;87.00
32400;DHT22;45045;45.440;9.178;2022-08-19T00:46:46;27.10;86.90
32400;DHT22;45045;45.440;9.178;2022-08-19T00:49:19;27.10;86.90
32400;DHT22;45045;45.440;9.178;2022-08-19T00:51:50;27.10;86.70
32400;DHT22;45045;45.440;9.178;2022-08-19T00:54:19;27.10;86.60
32400;DHT22;45045;45.440;9.178;2022-08-19T00:56:46;27.10;86.70
32400;DHT22;45045;45.440;9.178;2022-08-19T00:59:11;27.10;86.80
32400;DHT22;45045;45.440;9.178;2022-08-19T01:01:39;27.10;86.70
32400;DHT22;45045;45.440;9.178;2022-08-19T01:04:06;27.10;86.50
32400;DHT22;45045;45.440;9.178;2022-08-19T01:06:32;27.10;86.60
32400;DHT22;45045;45.440;9.178;2022-08-19T01:08:59;27.00;86.60
32400;DHT22;45045;45.440;9.178;2022-08-19T01:11:27;27.10;86.80
32400;DHT22;45045;45.440;9.178;2022-08-19T01:13:53;27.00;86.70
32400;DHT22;45045;45.440;9.178;2022-08-19T01:16:22;27.00;86.60
32400;DHT22;45045;45.440;9.178;2022-08-19T01:18:48;27.10;86.70
32400;DHT22;45045;45.440;9.178;2022-08-19T01:21:37;27.00;86.50
32400;DHT22;45045;45.440;9.178;2022-08-19T01:24:06;27.00;86.60
32400;DHT22;45045;45.440;9.178;2022-08-19T01:26:41;27.00;86.70
32400;DHT22;45045;45.440;9.178;2022-08-19T01:29:08;27.00;86.70
32400;DHT22;45045;45.440;9.178;2022-08-19T01:31:34;27.00;86.70
32400;DHT22;45045;45.440;9.178;2022-08-19T01:34:01;27.00;86.70
32400;DHT22;45045;45.440;9.178;2022-08-19T01:36:38;27.00;86.70
32400;DHT22;45045;45.440;9.178;2022-08-19T01:39:07;27.00;86.70
32400;DHT22;45045;45.440;9.178;2022-08-19T01:41:34;27.00;86.70
32400;DHT22;45045;45.440;9.178;2022-08-19T01:44:00;27.00;86.70
32400;DHT22;45045;45.440;9.178;2022-08-19T01:46:28;27.00;86.70
32400;DHT22;45045;45.440;9.178;2022-08-19T01:48:54;27.00;86.70
32400;DHT22;45045;45.440;9.178;2022-08-19T01:51:20;26.90;86.70
32400;DHT22;45045;45.440;9.178;2022-08-19T01:53:49;26.90;87.10
32400;DHT22;45045;45.440;9.178;2022-08-19T01:56:16;26.90;87.30
32400;DHT22;45045;45.440;9.178;2022-08-19T01:58:46;26.90;87.30
32400;DHT22;45045;45.440;9.178;2022-08-19T02:01:13;26.90;87.10
32400;DHT22;45045;45.440;9.178;2022-08-19T02:03:39;26.80;87.60
32400;DHT22;45045;45.440;9.178;2022-08-19T02:06:05;26.70;88.20
32400;DHT22;45045;45.440;9.178;2022-08-19T02:08:34;26.70;87.90
32400;DHT22;45045;45.440;9.178;2022-08-19T02:11:00;26.60;89.10
32400;DHT22;45045;45.440;9.178;2022-08-19T02:13:27;26.40;90.10
32400;DHT22;45045;45.440;9.178;2022-08-19T02:15:53;26.40;90.10
32400;DHT22;45045;45.440;9.178;2022-08-19T02:18:19;26.50;89.90
32400;DHT22;45045;45.440;9.178;2022-08-19T02:20:45;26.50;90.00
32400;DHT22;45045;45.440;9.178;2022-08-19T02:23:16;26.60;89.80
32400;DHT22;45045;45.440;9.178;2022-08-19T02:25:46;26.50;90.00
32400;DHT22;45045;45.440;9.178;2022-08-19T02:28:13;26.60;89.40
32400;DHT22;45045;45.440;9.178;2022-08-19T02:30:41;26.70;89.80
32400;DHT22;45045;45.440;9.178;2022-08-19T02:33:07;26.60;89.80
32400;DHT22;45045;45.440;9.178;2022-08-19T02:35:32;26.60;89.80
32400;DHT22;45045;45.440;9.178;2022-08-19T02:37:58;26.50;89.90
32400;DHT22;45045;45.440;9.178;2022-08-19T02:40:50;26.60;90.00
32400;DHT22;45045;45.440;9.178;2022-08-19T02:43:17;26.60;89.80
32400;DHT22;45045;45.440;9.178;2022-08-19T02:45:43;26.50;89.90
32400;DHT22;45045;45.440;9.178;2022-08-19T02:48:09;26.60;89.90
32400;DHT22;45045;45.440;9.178;2022-08-19T02:50:39;26.60;89.70
32400;DHT22;45045;45.440;9.178;2022-08-19T02:53:05;26.60;89.60
32400;DHT22;45045;45.440;9.178;2022-08-19T02:55:32;26.60;90.10
32400;DHT22;45045;45.440;9.178;2022-08-19T02:57:59;26.70;89.60
32400;DHT22;45045;45.440;9.178;2022-08-19T03:00:25;26.70;89.60
32400;DHT22;45045;45.440;9.178;2022-08-19T03:02:52;26.70;89.50
32400;DHT22;45045;45.440;9.178;2022-08-19T03:05:17;26.70;89.40
32400;DHT22;45045;45.440;9.178;2022-08-19T03:07:43;26.70;89.20
32400;DHT22;45045;45.440;9.178;2022-08-19T03:10:09;26.70;89.20
32400;DHT22;45045;45.440;9.178;2022-08-19T03:12:37;26.70;89.30
32400;DHT22;45045;45.440;9.178;2022-08-19T03:15:06;26.70;89.40
32400;DHT22;45045;45.440;9.178;2022-08-19T03:17:33;26.70;89.50
32400;DHT22;45045;45.440;9.178;2022-08-19T03:19:59;26.70;89.50
32400;DHT22;45045;45.440;9.178;2022-08-19T03:27:19;26.70;89.20
32400;DHT22;45045;45.440;9.178;2022-08-19T03:29:45;26.60;89.30
32400;DHT22;45045;45.440;9.178;2022-08-19T03:32:11;26.60;89.60
32400;DHT22;45045;45.440;9.178;2022-08-19T03:34:37;26.60;89.60
32400;DHT22;45045;45.440;9.178;2022-08-19T03:37:09;26.70;89.50
32400;DHT22;45045;45.440;9.178;2022-08-19T03:39:37;26.60;89.70
32400;DHT22;45045;45.440;9.178;2022-08-19T03:42:04;26.60;89.80
32400;DHT22;45045;45.440;9.178;2022-08-19T03:44:31;26.70;89.80
32400;DHT22;45045;45.440;9.178;2022-08-19T03:46:59;26.70;89.40
32400;DHT22;45045;45.440;9.178;2022-08-19T03:49:29;26.50;89.40
32400;DHT22;45045;45.440;9.178;2022-08-19T03:51:56;26.30;90.10
32400;DHT22;45045;45.440;9.178;2022-08-19T03:54:24;26.40;90.30
32400;DHT22;45045;45.440;9.178;2022-08-19T03:56:51;26.50;90.30
32400;DHT22;45045;45.440;9.178;2022-08-19T03:59:24;26.50;90.10
32400;DHT22;45045;45.440;9.178;2022-08-19T04:01:52;26.50;90.10
32400;DHT22;45045;45.440;9.178;2022-08-19T04:04:18;26.60;90.20
32400;DHT22;45045;45.440;9.178;2022-08-19T04:06:44;26.60;89.90
32400;DHT22;45045;45.440;9.178;2022-08-19T04:09:12;26.50;90.00
32400;DHT22;45045;45.440;9.178;2022-08-19T04:11:40;26.50;90.40
32400;DHT22;45045;45.440;9.178;2022-08-19T04:14:08;26.40;90.20
32400;DHT22;45045;45.440;9.178;2022-08-19T04:16:36;26.40;90.20
32400;DHT22;45045;45.440;9.178;2022-08-19T04:19:03;26.40;90.20
32400;DHT22;45045;45.440;9.178;2022-08-19T04:21:29;26.40;90.20
32400;DHT22;45045;45.440;9.178;2022-08-19T04:23:55;26.40;90.20
32400;DHT22;45045;45.440;9.178;2022-08-19T04:26:24;26.50;90.10
32400;DHT22;45045;45.440;9.178;2022-08-19T04:28:50;26.50;90.00
32400;DHT22;45045;45.440;9.178;2022-08-19T04:31:24;26.20;90.40
32400;DHT22;45045;45.440;9.178;2022-08-19T04:33:52;25.90;91.20
32400;DHT22;45045;45.440;9.178;2022-08-19T04:36:22;25.60;92.70
32400;DHT22;45045;45.440;9.178;2022-08-19T04:38:49;25.80;91.90
32400;DHT22;45045;45.440;9.178;2022-08-19T04:41:15;26.00;91.40
32400;DHT22;45045;45.440;9.178;2022-08-19T04:44:00;26.20;91.00
32400;DHT22;45045;45.440;9.178;2022-08-19T04:46:25;26.20;90.80
32400;DHT22;45045;45.440;9.178;2022-08-19T04:48:51;26.40;90.80
32400;DHT22;45045;45.440;9.178;2022-08-19T04:51:18;26.40;90.60
32400;DHT22;45045;45.440;9.178;2022-08-19T04:53:43;26.20;91.30
32400;DHT22;45045;45.440;9.178;2022-08-19T04:56:12;25.40;92.80
32400;DHT22;45045;45.440;9.178;2022-08-19T04:58:39;25.20;93.80
32400;DHT22;45045;45.440;9.178;2022-08-19T05:01:07;25.20;94.40
32400;DHT22;45045;45.440;9.178;2022-08-19T05:03:36;25.00;94.70
32400;DHT22;45045;45.440;9.178;2022-08-19T05:06:06;25.40;93.70
32400;DHT22;45045;45.440;9.178;2022-08-19T05:08:34;25.10;94.70
32400;DHT22;45045;45.440;9.178;2022-08-19T05:11:06;24.40;96.40
32400;DHT22;45045;45.440;9.178;2022-08-19T05:13:33;24.40;96.90
32400;DHT22;45045;45.440;9.178;2022-08-19T05:15:59;25.00;95.50
32400;DHT22;45045;45.440;9.178;2022-08-19T05:18:25;24.90;95.70
32400;DHT22;45045;45.440;9.178;2022-08-19T05:21:13;24.60;96.70
32400;DHT22;45045;45.440;9.178;2022-08-19T05:23:57;24.30;97.60
32400;DHT22;45045;45.440;9.178;2022-08-19T05:26:24;24.00;98.80
32400;DHT22;45045;45.440;9.178;2022-08-19T05:28:54;23.60;99.90
32400;DHT22;45045;45.440;9.178;2022-08-19T05:31:21;23.50;99.90
32400;DHT22;45045;45.440;9.178;2022-08-19T05:33:47;23.50;99.90
32400;DHT22;45045;45.440;9.178;2022-08-19T05:36:14;23.70;99.90
32400;DHT22;45045;45.440;9.178;2022-08-19T05:38:40;23.70;99.90
32400;DHT22;45045;45.440;9.178;2022-08-19T05:41:09;24.10;99.90
32400;DHT22;45045;45.440;9.178;2022-08-19T05:43:36;24.30;99.20
32400;DHT22;45045;45.440;9.178;2022-08-19T05:46:03;24.70;98.50
32400;DHT22;45045;45.440;9.178;2022-08-19T05:48:30;24.60;98.20
32400;DHT22;45045;45.440;9.178;2022-08-19T05:50:56;24.70;98.20
32400;DHT22;45045;45.440;9.178;2022-08-19T05:53:23;24.80;97.80
32400;DHT22;45045;45.440;9.178;2022-08-19T05:55:49;25.20;96.50
32400;DHT22;45045;45.440;9.178;2022-08-19T05:58:15;25.40;95.60
32400;DHT22;45045;45.440;9.178;2022-08-19T06:00:43;25.60;95.00
32400;DHT22;45045;45.440;9.178;2022-08-19T06:03:10;25.80;94.60
32400;DHT22;45045;45.440;9.178;2022-08-19T06:05:36;25.90;94.30
32400;DHT22;45045;45.440;9.178;2022-08-19T06:08:01;25.90;94.00
32400;DHT22;45045;45.440;9.178;2022-08-19T06:10:27;26.00;93.90
32400;DHT22;45045;45.440;9.178;2022-08-19T06:12:53;26.00;93.70
32400;DHT22;45045;45.440;9.178;2022-08-19T06:15:19;26.00;94.30
32400;DHT22;45045;45.440;9.178;2022-08-19T06:17:46;25.90;94.00
32400;DHT22;45045;45.440;9.178;2022-08-19T06:20:13;25.90;93.80
32400;DHT22;45045;45.440;9.178;2022-08-19T06:22:45;25.90;94.00
32400;DHT22;45045;45.440;9.178;2022-08-19T06:25:12;25.70;94.00
32400;DHT22;45045;45.440;9.178;2022-08-19T06:27:40;25.20;95.40
32400;DHT22;45045;45.440;9.178;2022-08-19T06:30:06;25.20;95.80
32400;DHT22;45045;45.440;9.178;2022-08-19T06:32:32;25.30;95.50
32400;DHT22;45045;45.440;9.178;2022-08-19T06:34:58;25.10;95.90
32400;DHT22;45045;45.440;9.178;2022-08-19T06:37:24;25.00;96.40
32400;DHT22;45045;45.440;9.178;2022-08-19T06:39:49;25.30;95.80
32400;DHT22;45045;45.440;9.178;2022-08-19T06:42:15;25.50;95.00
32400;DHT22;45045;45.440;9.178;2022-08-19T06:44:46;25.60;94.80
32400;DHT22;45045;45.440;9.178;2022-08-19T06:47:14;25.50;95.10
32400;DHT22;45045;45.440;9.178;2022-08-19T06:49:41;25.50;95.10
32400;DHT22;45045;45.440;9.178;2022-08-19T06:52:07;25.60;94.80
32400;DHT22;45045;45.440;9.178;2022-08-19T06:54:33;25.60;94.90
32400;DHT22;45045;45.440;9.178;2022-08-19T06:57:00;25.40;95.60
32400;DHT22;45045;45.440;9.178;2022-08-19T06:59:31;25.60;94.60
32400;DHT22;45045;45.440;9.178;2022-08-19T07:02:03;25.80;94.20
32400;DHT22;45045;45.440;9.178;2022-08-19T07:04:32;25.90;93.90
32400;DHT22;45045;45.440;9.178;2022-08-19T07:07:05;25.80;95.50
32400;DHT22;45045;45.440;9.178;2022-08-19T07:09:36;25.30;96.10
32400;DHT22;45045;45.440;9.178;2022-08-19T07:12:04;25.50;96.10
32400;DHT22;45045;45.440;9.178;2022-08-19T07:14:32;25.70;95.60
32400;DHT22;45045;45.440;9.178;2022-08-19T07:17:05;25.90;95.50
32400;DHT22;45045;45.440;9.178;2022-08-19T07:19:31;26.10;95.00
32400;DHT22;45045;45.440;9.178;2022-08-19T07:21:57;26.10;94.60
32400;DHT22;45045;45.440;9.178;2022-08-19T07:24:25;26.20;94.80
32400;DHT22;45045;45.440;9.178;2022-08-19T07:26:55;26.30;94.20
32400;DHT22;45045;45.440;9.178;2022-08-19T07:29:22;26.20;95.10
32400;DHT22;45045;45.440;9.178;2022-08-19T07:31:52;26.20;94.60
32400;DHT22;45045;45.440;9.178;2022-08-19T07:34:20;26.30;94.90
32400;DHT22;45045;45.440;9.178;2022-08-19T07:36:45;26.20;94.90
32400;DHT22;45045;45.440;9.178;2022-08-19T07:39:15;26.00;95.70
32400;DHT22;45045;45.440;9.178;2022-08-19T07:41:41;25.80;96.40
32400;DHT22;45045;45.440;9.178;2022-08-19T07:44:07;26.00;95.40
32400;DHT22;45045;45.440;9.178;2022-08-19T07:46:39;26.10;94.70
32400;DHT22;45045;45.440;9.178;2022-08-19T07:49:06;26.20;95.00
32400;DHT22;45045;45.440;9.178;2022-08-19T07:51:32;26.20;95.00
32400;DHT22;45045;45.440;9.178;2022-08-19T07:53:58;25.80;94.50
32400;DHT22;45045;45.440;9.178;2022-08-19T07:56:25;25.80;95.30
32400;DHT22;45045;45.440;9.178;2022-08-19T07:58:52;25.60;95.60
32400;DHT22;45045;45.440;9.178;2022-08-19T08:01:21;25.80;95.30
32400;DHT22;45045;45.440;9.178;2022-08-19T08:03:49;26.00;95.00
32400;DHT22;45045;45.440;9.178;2022-08-19T08:06:34;26.10;94.90
32400;DHT22;45045;45.440;9.178;2022-08-19T08:09:23;26.20;94.80
32400;DHT22;45045;45.440;9.178;2022-08-19T08:14:27;26.40;94.70
32400;DHT22;45045;45.440;9.178;2022-08-19T08:16:53;26.40;95.00
32400;DHT22;45045;45.440;9.178;2022-08-19T08:19:21;26.40;93.60
32400;DHT22;45045;45.440;9.178;2022-08-19T08:21:47;26.40;94.00
32400;DHT22;45045;45.440;9.178;2022-08-19T08:24:13;26.40;94.20
32400;DHT22;45045;45.440;9.178;2022-08-19T08:26:40;26.50;94.10
32400;DHT22;45045;45.440;9.178;2022-08-19T08:29:06;26.50;93.80
32400;DHT22;45045;45.440;9.178;2022-08-19T08:31:35;26.60;94.20
32400;DHT22;45045;45.440;9.178;2022-08-19T08:34:01;26.60;94.00
32400;DHT22;45045;45.440;9.178;2022-08-19T08:36:27;26.60;93.70
32400;DHT22;45045;45.440;9.178;2022-08-19T08:38:53;26.70;93.80
32400;DHT22;45045;45.440;9.178;2022-08-19T08:42:13;26.70;93.60
32400;DHT22;45045;45.440;9.178;2022-08-19T08:47:13;26.80;93.40
32400;DHT22;45045;45.440;9.178;2022-08-19T08:49:51;26.80;93.40
32400;DHT22;45045;45.440;9.178;2022-08-19T08:52:29;26.80;93.40
32400;DHT22;45045;45.440;9.178;2022-08-19T08:54:58;26.80;93.40
32400;DHT22;45045;45.440;9.178;2022-08-19T08:58:06;26.90;93.20
32400;DHT22;45045;45.440;9.178;2022-08-19T09:00:38;26.90;92.90
32400;DHT22;45045;45.440;9.178;2022-08-19T09:03:09;26.90;92.40
32400;DHT22;45045;45.440;9.178;2022-08-19T09:06:00;26.90;92.70
32400;DHT22;45045;45.440;9.178;2022-08-19T09:08:40;27.00;92.80
32400;DHT22;45045;45.440;9.178;2022-08-19T09:11:13;27.00;92.70
32400;DHT22;45045;45.440;9.178;2022-08-19T09:14:01;27.00;92.60
32400;DHT22;45045;45.440;9.178;2022-08-19T09:16:29;27.10;92.40
32400;DHT22;45045;45.440;9.178;2022-08-19T09:19:00;27.10;92.40
32400;DHT22;45045;45.440;9.178;2022-08-19T09:21:26;27.10;91.80
32400;DHT22;45045;45.440;9.178;2022-08-19T09:23:53;27.20;91.90
32400;DHT22;45045;45.440;9.178;2022-08-19T09:26:21;27.30;91.90
32400;DHT22;45045;45.440;9.178;2022-08-19T09:28:49;27.30;91.70
32400;DHT22;45045;45.440;9.178;2022-08-19T09:31:19;27.40;91.30
32400;DHT22;45045;45.440;9.178;2022-08-19T09:33:45;27.50;90.10
32400;DHT22;45045;45.440;9.178;2022-08-19T09:36:13;27.40;90.80
32400;DHT22;45045;45.440;9.178;2022-08-19T09:38:40;27.40;91.20
32400;DHT22;45045;45.440;9.178;2022-08-19T09:41:09;27.40;91.20
32400;DHT22;45045;45.440;9.178;2022-08-19T09:43:36;27.50;91.10
32400;DHT22;45045;45.440;9.178;2022-08-19T09:46:04;27.50;90.90
32400;DHT22;45045;45.440;9.178;2022-08-19T09:48:35;27.50;90.90
32400;DHT22;45045;45.440;9.178;2022-08-19T09:51:10;27.60;90.80
32400;DHT22;45045;45.440;9.178;2022-08-19T09:53:37;27.60;91.00
32400;DHT22;45045;45.440;9.178;2022-08-19T09:56:04;27.70;90.60
32400;DHT22;45045;45.440;9.178;2022-08-19T09:58:31;27.60;90.40
32400;DHT22;45045;45.440;9.178;2022-08-19T10:00:58;27.70;90.30
32400;DHT22;45045;45.440;9.178;2022-08-19T10:03:25;27.80;90.20
32400;DHT22;45045;45.440;9.178;2022-08-19T10:05:52;27.80;88.60
32400;DHT22;45045;45.440;9.178;2022-08-19T10:08:27;27.80;89.50
32400;DHT22;45045;45.440;9.178;2022-08-19T10:10:54;27.80;89.50
32400;DHT22;45045;45.440;9.178;2022-08-19T10:13:22;28.00;89.80
32400;DHT22;45045;45.440;9.178;2022-08-19T10:15:51;28.00;88.80
32400;DHT22;45045;45.440;9.178;2022-08-19T10:18:19;28.00;88.50
32400;DHT22;45045;45.440;9.178;2022-08-19T10:20:50;28.10;88.40
32400;DHT22;45045;45.440;9.178;2022-08-19T10:23:16;28.10;87.90
32400;DHT22;45045;45.440;9.178;2022-08-19T10:25:42;28.10;87.90
32400;DHT22;45045;45.440;9.178;2022-08-19T10:28:08;28.00;87.70
32400;DHT22;45045;45.440;9.178;2022-08-19T10:30:37;27.90;87.90
32400;DHT22;45045;45.440;9.178;2022-08-19T10:33:04;27.90;88.00
32400;DHT22;45045;45.440;9.178;2022-08-19T10:35:30;28.00;87.60
32400;DHT22;45045;45.440;9.178;2022-08-19T10:37:56;28.10;87.50
32400;DHT22;45045;45.440;9.178;2022-08-19T10:40:27;28.00;86.70
32400;DHT22;45045;45.440;9.178;2022-08-19T10:42:54;28.00;86.70
32400;DHT22;45045;45.440;9.178;2022-08-19T10:45:21;28.10;86.30
32400;DHT22;45045;45.440;9.178;2022-08-19T10:47:48;28.20;85.50
32400;DHT22;45045;45.440;9.178;2022-08-19T10:50:14;28.20;85.30
32400;DHT22;45045;45.440;9.178;2022-08-19T10:53:04;28.30;85.00
32400;DHT22;45045;45.440;9.178;2022-08-19T10:55:30;28.30;84.60
32400;DHT22;45045;45.440;9.178;2022-08-19T10:58:16;28.30;84.10
32400;DHT22;45045;45.440;9.178;2022-08-19T11:00:43;28.20;84.40
32400;DHT22;45045;45.440;9.178;2022-08-19T11:03:15;28.30;83.90
32400;DHT22;45045;45.440;9.178;2022-08-19T11:05:41;28.60;82.80
32400;DHT22;45045;45.440;9.178;2022-08-19T11:08:08;28.70;82.40
32400;DHT22;45045;45.440;9.178;2022-08-19T11:10:40;28.80;82.00
32400;DHT22;45045;45.440;9.178;2022-08-19T11:13:06;28.80;81.70
32400;DHT22;45045;45.440;9.178;2022-08-19T11:15:31;28.80;81.50
32400;DHT22;45045;45.440;9.178;2022-08-19T11:17:59;28.70;81.60
32400;DHT22;45045;45.440;9.178;2022-08-19T11:20:25;28.60;81.50
32400;DHT22;45045;45.440;9.178;2022-08-19T11:22:52;28.70;81.80
32400;DHT22;45045;45.440;9.178;2022-08-19T11:25:19;28.80;82.00
32400;DHT22;45045;45.440;9.178;2022-08-19T11:27:45;28.90;80.90
32400;DHT22;45045;45.440;9.178;2022-08-19T11:30:13;28.90;80.70
32400;DHT22;45045;45.440;9.178;2022-08-19T11:32:41;29.10;80.00
32400;DHT22;45045;45.440;9.178;2022-08-19T11:35:07;28.90;79.60
32400;DHT22;45045;45.440;9.178;2022-08-19T11:37:33;28.90;79.80
32400;DHT22;45045;45.440;9.178;2022-08-19T11:40:03;29.00;80.40
32400;DHT22;45045;45.440;9.178;2022-08-19T11:42:32;29.10;79.30
32400;DHT22;45045;45.440;9.178;2022-08-19T11:45:16;29.30;78.20
32400;DHT22;45045;45.440;9.178;2022-08-19T11:47:42;29.40;78.00
32400;DHT22;45045;45.440;9.178;2022-08-19T11:50:09;29.40;77.80
32400;DHT22;45045;45.440;9.178;2022-08-19T11:52:35;29.50;77.80
32400;DHT22;45045;45.440;9.178;2022-08-19T11:55:00;29.50;77.10
32400;DHT22;45045;45.440;9.178;2022-08-19T11:57:26;29.40;77.60
32400;DHT22;45045;45.440;9.178;2022-08-19T11:59:52;29.50;77.10
32400;DHT22;45045;45.440;9.178;2022-08-19T12:02:18;29.60;77.40
32400;DHT22;45045;45.440;9.178;2022-08-19T12:04:44;29.70;75.80
32400;DHT22;45045;45.440;9.178;2022-08-19T12:07:10;29.70;75.90
32400;DHT22;45045;45.440;9.178;2022-08-19T12:09:36;29.60;76.40
32400;DHT22;45045;45.440;9.178;2022-08-19T12:12:01;29.70;76.20
32400;DHT22;45045;45.440;9.178;2022-08-19T12:14:30;29.70;75.30
32400;DHT22;45045;45.440;9.178;2022-08-19T12:16:57;29.50;76.40
32400;DHT22;45045;45.440;9.178;2022-08-19T12:19:23;29.60;75.70
32400;DHT22;45045;45.440;9.178;2022-08-19T12:21:50;29.60;75.50
32400;DHT22;45045;45.440;9.178;2022-08-19T12:24:16;29.60;76.00
32400;DHT22;45045;45.440;9.178;2022-08-19T12:26:48;29.60;76.10
32400;DHT22;45045;45.440;9.178;2022-08-19T12:29:14;29.50;76.00
32400;DHT22;45045;45.440;9.178;2022-08-19T12:31:40;29.40;76.30
32400;DHT22;45045;45.440;9.178;2022-08-19T12:34:08;29.60;76.30
32400;DHT22;45045;45.440;9.178;2022-08-19T12:36:34;29.60;75.90
32400;DHT22;45045;45.440;9.178;2022-08-19T12:39:00;29.80;75.40
32400;DHT22;45045;45.440;9.178;2022-08-19T12:41:26;29.90;75.30
32400;DHT22;45045;45.440;9.178;2022-08-19T12:43:52;29.90;74.60
32400;DHT22;45045;45.440;9.178;2022-08-19T12:46:19;29.80;74.70
32400;DHT22;45045;45.440;9.178;2022-08-19T12:48:45;29.80;74.90
32400;DHT22;45045;45.440;9.178;2022-08-19T12:51:14;30.10;74.60
32400;DHT22;45045;45.440;9.178;2022-08-19T12:53:41;30.00;74.10
32400;DHT22;45045;45.440;9.178;2022-08-19T12:56:08;29.90;74.00
32400;DHT22;45045;45.440;9.178;2022-08-19T12:58:34;29.80;74.00
32400;DHT22;45045;45.440;9.178;2022-08-19T13:01:07;30.10;73.90
32400;DHT22;45045;45.440;9.178;2022-08-19T13:03:32;30.30;73.30
32400;DHT22;45045;45.440;9.178;2022-08-19T13:05:58;30.30;73.20
32400;DHT22;45045;45.440;9.178;2022-08-19T13:08:24;30.20;73.50
32400;DHT22;45045;45.440;9.178;2022-08-19T13:10:50;30.20;73.50
32400;DHT22;45045;45.440;9.178;2022-08-19T13:13:16;30.20;73.00
32400;DHT22;45045;45.440;9.178;2022-08-19T13:15:42;30.20;73.80
32400;DHT22;45045;45.440;9.178;2022-08-19T13:18:10;30.30;73.90
32400;DHT22;45045;45.440;9.178;2022-08-19T13:20:37;30.40;73.10
32400;DHT22;45045;45.440;9.178;2022-08-19T13:23:06;30.40;73.20
32400;DHT22;45045;45.440;9.178;2022-08-19T13:25:32;30.30;72.90
32400;DHT22;45045;45.440;9.178;2022-08-19T13:27:59;30.20;73.80
32400;DHT22;45045;45.440;9.178;2022-08-19T13:30:24;30.40;73.40
32400;DHT22;45045;45.440;9.178;2022-08-19T13:33:09;30.30;72.80
32400;DHT22;45045;45.440;9.178;2022-08-19T13:35:50;30.30;72.80
32400;DHT22;45045;45.440;9.178;2022-08-19T13:38:21;30.50;72.70
32400;DHT22;45045;45.440;9.178;2022-08-19T13:40:48;30.30;72.80
32400;DHT22;45045;45.440;9.178;2022-08-19T13:43:16;30.30;73.30
32400;DHT22;45045;45.440;9.178;2022-08-19T13:45:42;30.50;72.80
32400;DHT22;45045;45.440;9.178;2022-08-19T13:48:08;30.40;72.70
32400;DHT22;45045;45.440;9.178;2022-08-19T13:50:40;30.60;72.60
32400;DHT22;45045;45.440;9.178;2022-08-19T13:53:09;30.70;72.20
32400;DHT22;45045;45.440;9.178;2022-08-19T13:55:37;30.50;72.70
32400;DHT22;45045;45.440;9.178;2022-08-19T13:58:02;30.40;72.50
32400;DHT22;45045;45.440;9.178;2022-08-19T14:00:32;30.40;72.80
32400;DHT22;45045;45.440;9.178;2022-08-19T14:02:58;30.40;72.50
32400;DHT22;45045;45.440;9.178;2022-08-19T14:05:26;30.40;72.90
32400;DHT22;45045;45.440;9.178;2022-08-19T14:07:53;30.60;72.00
32400;DHT22;45045;45.440;9.178;2022-08-19T14:10:18;30.70;72.10
32400;DHT22;45045;45.440;9.178;2022-08-19T14:12:44;30.80;71.50
32400;DHT22;45045;45.440;9.178;2022-08-19T14:15:11;30.70;71.40
32400;DHT22;45045;45.440;9.178;2022-08-19T14:17:44;30.70;71.30
32400;DHT22;45045;45.440;9.178;2022-08-19T14:20:12;30.50;72.30
32400;DHT22;45045;45.440;9.178;2022-08-19T14:22:40;30.60;71.90
32400;DHT22;45045;45.440;9.178;2022-08-19T14:25:08;30.70;71.90
32400;DHT22;45045;45.440;9.178;2022-08-19T14:27:35;30.50;71.80
32400;DHT22;45045;45.440;9.178;2022-08-19T14:30:03;30.40;72.20
32400;DHT22;45045;45.440;9.178;2022-08-19T14:32:29;30.50;72.30
32400;DHT22;45045;45.440;9.178;2022-08-19T14:34:55;30.60;71.20
32400;DHT22;45045;45.440;9.178;2022-08-19T14:37:21;30.70;71.10
32400;DHT22;45045;45.440;9.178;2022-08-19T14:39:47;30.70;70.40
32400;DHT22;45045;45.440;9.178;2022-08-19T14:42:13;30.80;70.20
32400;DHT22;45045;45.440;9.178;2022-08-19T14:44:40;30.90;71.60
32400;DHT22;45045;45.440;9.178;2022-08-19T14:47:06;30.80;68.10
32400;DHT22;45045;45.440;9.178;2022-08-19T14:49:33;30.90;65.10
32400;DHT22;45045;45.440;9.178;2022-08-19T14:51:59;30.90;65.50
32400;DHT22;45045;45.440;9.178;2022-08-19T14:54:25;30.80;61.50
32400;DHT22;45045;45.440;9.178;2022-08-19T14:56:50;30.80;62.00
32400;DHT22;45045;45.440;9.178;2022-08-19T14:59:16;30.80;63.30
32400;DHT22;45045;45.440;9.178;2022-08-19T15:01:42;30.80;65.00
32400;DHT22;45045;45.440;9.178;2022-08-19T15:04:08;30.80;62.00
32400;DHT22;45045;45.440;9.178;2022-08-19T15:06:34;30.80;61.00
32400;DHT22;45045;45.440;9.178;2022-08-19T15:09:00;30.80;62.00
32400;DHT22;45045;45.440;9.178;2022-08-19T15:11:27;30.80;59.90
32400;DHT22;45045;45.440;9.178;2022-08-19T15:13:54;30.80;61.20
32400;DHT22;45045;45.440;9.178;2022-08-19T15:16:21;30.70;60.30
32400;DHT22;45045;45.440;9.178;2022-08-19T15:18:51;30.80;60.80
32400;DHT22;45045;45.440;9.178;2022-08-19T15:21:17;30.80;59.40
32400;DHT22;45045;45.440;9.178;2022-08-19T15:23:47;30.80;58.80
32400;DHT22;45045;45.440;9.178;2022-08-19T15:26:15;30.70;59.20
32400;DHT22;45045;45.440;9.178;2022-08-19T15:28:41;30.80;59.10
32400;DHT22;45045;45.440;9.178;2022-08-19T15:31:07;30.80;58.30
32400;DHT22;45045;45.440;9.178;2022-08-19T15:33:35;30.80;59.70
32400;DHT22;45045;45.440;9.178;2022-08-19T15:36:05;30.80;59.40
32400;DHT22;45045;45.440;9.178;2022-08-19T15:38:31;30.80;57.20
32400;DHT22;45045;45.440;9.178;2022-08-19T15:40:59;30.80;59.20
32400;DHT22;45045;45.440;9.178;2022-08-19T15:43:45;30.80;59.50
32400;DHT22;45045;45.440;9.178;2022-08-19T15:46:11;30.80;60.10